Time,TemperatureF,DewpointF,PressureIn,WindDirection,WindDirectionDegrees,WindSpeedMPH,WindSpeedGustMPH,Humidity,HourlyPrecipIn,Conditions,Clouds,dailyrainin,SoftwareType,DateUTC
2013-11-08 00:03:00,48.7,40.5,30.21,ENE,68,0.0,0.0,73,0.00,RA,,0.00,WeatherDisplay:10.37,2013-11-08 06:03:00,
2013-11-08 00:08:00,48.7,40.5,30.21,ENE,68,0.0,0.0,73,0.00,RA,,0.00,WeatherDisplay:10.37,2013-11-08 06:08:00,
2013-11-08 00:13:00,48.6,40.3,30.21,ENE,68,0.0,0.0,73,0.00,CLR,,0.00,WeatherDisplay:10.37,2013-11-08 06:13:00,
2013-11-08 00:18:00,48.6,40.3,30.21,NNE,22,0.0,0.0,73,0.00,CLR,,0.00,WeatherDisplay:10.37,2013-11-08 06:18:00,
2013-11-08 00:23:00,48.4,40.1,30.21,North,0,0.0,0.0,73,0.00,CLR,,0.00,WeatherDisplay:10.37,2013-11-08 06:23:00,
2013-11-08 00:28:00,48.4,40.1,30.21,North,0,0.0,0.0,73,0.00,CLR,,0.00,WeatherDisplay:10.37,2013-11-08 06:28:00,
2013-11-08 00:33:00,48.2,39.9,30.21,North,0,0.0,0.0,73,0.00,CLR,,0.00,WeatherDisplay:10.37,2013-11-08 06:33:00,
2013-11-08 00:38:00,48.2,39.9,30.22,North,0,0.0,0.0,73,0.00,CLR,,0.00,WeatherDisplay:10.37,2013-11-08 06:38:00,
2013-11-08 00:43:00,48.0,39.8,30.22,North,0,0.0,0.0,73,0.00,CLR,,0.00,WeatherDisplay:10.37,2013-11-08 06:43:00,
2013-11-08 00:48:00,48.0,39.8,30.22,North,0,0.0,0.0,73,0.00,CLR,,0.00,WeatherDisplay:10.37,2013-11-08 06:48:00,
2013-11-08 00:53:00,48.0,39.8,30.22,North,0,0.0,0.0,73,0.00,CLR,,0.00,WeatherDisplay:10.37,2013-11-08 06:53:00,
2013-11-08 00:58:00,47.8,39.6,30.21,North,0,0.0,0.0,73,0.00,CLR,,0.00,WeatherDisplay:10.37,2013-11-08 06:58:00,
2013-11-08 01:03:00,47.8,39.6,30.21,North,0,0.0,0.0,73,0.00,CLR,,0.00,WeatherDisplay:10.37,2013-11-08 07:03:00,
2013-11-08 01:08:00,47.8,39.6,30.21,North,0,0.0,0.0,73,0.00,CLR,,0.00,WeatherDisplay:10.37,2013-11-08 07:08:00,
2013-11-08 01:13:00,47.3,39.1,30.21,ENE,68,0.0,0.0,73,0.00,CLR,,0.00,WeatherDisplay:10.37,2013-11-08 07:13:00,
2013-11-08 01:18:00,47.3,39.1,30.21,ENE,68,0.0,0.0,73,0.00,CLR,,0.00,WeatherDisplay:10.37,2013-11-08 07:18:00,
2013-11-08 01:23:00,47.1,38.9,30.21,ENE,68,0.0,0.0,73,0.00,CLR,,0.00,WeatherDisplay:10.37,2013-11-08 07:23:00,
2013-11-08 01:28:00,47.1,38.9,30.21,ENE,68,0.0,0.0,73,0.00,CLR,,0.00,WeatherDisplay:10.37,2013-11-08 07:28:00,
2013-11-08 01:33:00,47.1,38.9,30.21,ENE,68,0.0,0.0,73,0.00,CLR,,0.00,WeatherDisplay:10.37,2013-11-08 07:33:00,
2013-11-08 01:38:00,47.1,38.9,30.22,ENE,68,0.0,0.0,73,0.00,CLR,,0.00,WeatherDisplay:10.37,2013-11-08 07:38:00,
2013-11-08 01:43:00,46.9,38.7,30.22,ENE,68,0.0,0.0,73,0.00,CLR,,0.00,WeatherDisplay:10.37,2013-11-08 07:43:00,
2013-11-08 01:48:00,46.9,38.7,30.21,ENE,68,0.0,0.0,73,0.00,CLR,,0.00,WeatherDisplay:10.37,2013-11-08 07:48:00,
2013-11-08 01:53:00,46.9,38.7,30.21,ENE,68,0.0,0.0,73,0.00,CLR,,0.00,WeatherDisplay:10.37,2013-11-08 07:53:00,
2013-11-08 01:58:00,46.8,38.6,30.21,ENE,68,0.0,0.0,73,0.00,CLR,,0.00,WeatherDisplay:10.37,2013-11-08 07:58:00,
2013-11-08 02:03:00,46.8,38.6,30.21,ENE,68,0.0,0.0,73,0.00,CLR,,0.00,WeatherDisplay:10.37,2013-11-08 08:03:00,
2013-11-08 02:08:00,46.8,38.6,30.21,ENE,68,0.0,0.0,73,0.00,CLR,,0.00,WeatherDisplay:10.37,2013-11-08 08:08:00,
2013-11-08 02:13:00,46.9,38.4,30.21,ENE,68,0.0,0.0,72,0.00,CLR,,0.00,WeatherDisplay:10.37,2013-11-08 08:13:00,
2013-11-08 02:18:00,46.9,38.4,30.21,ENE,68,0.0,0.0,72,0.00,CLR,,0.00,WeatherDisplay:10.37,2013-11-08 08:18:00,
2013-11-08 02:23:00,46.9,38.4,30.21,ENE,68,0.0,0.0,72,0.00,CLR,,0.00,WeatherDisplay:10.37,2013-11-08 08:23:00,
2013-11-08 02:28:00,46.9,38.4,30.21,ENE,68,0.0,0.0,72,0.00,CLR,,0.00,WeatherDisplay:10.37,2013-11-08 08:28:00,
2013-11-08 02:33:00,46.9,38.4,30.21,NE,45,0.0,0.0,72,0.00,CLR,,0.00,WeatherDisplay:10.37,2013-11-08 08:33:00,
2013-11-08 02:38:00,46.9,38.0,30.21,ENE,68,0.0,0.0,71,0.00,CLR,,0.00,WeatherDisplay:10.37,2013-11-08 08:38:00,
2013-11-08 02:43:00,46.9,38.0,30.21,ENE,68,0.0,0.0,71,0.00,CLR,,0.00,WeatherDisplay:10.37,2013-11-08 08:43:00,
2013-11-08 02:48:00,46.8,37.9,30.21,NE,45,0.0,0.0,71,0.00,CLR,,0.00,WeatherDisplay:10.37,2013-11-08 08:48:00,
2013-11-08 02:53:00,46.8,37.5,30.21,ENE,68,0.0,0.0,70,0.00,CLR,,0.00,WeatherDisplay:10.37,2013-11-08 08:53:00,
2013-11-08 02:58:00,46.8,37.5,30.21,ENE,68,0.0,0.0,70,0.00,CLR,,0.00,WeatherDisplay:10.37,2013-11-08 08:58:00,
2013-11-08 03:03:00,46.8,37.5,30.21,ENE,68,0.0,0.0,70,0.00,CLR,,0.00,WeatherDisplay:10.37,2013-11-08 09:03:00,
2013-11-08 03:08:00,46.8,37.5,30.21,ENE,68,0.0,0.0,70,0.00,CLR,,0.00,WeatherDisplay:10.37,2013-11-08 09:08:00,
2013-11-08 03:13:00,46.6,37.3,30.22,ENE,68,0.0,0.0,70,0.00,CLR,,0.00,WeatherDisplay:10.37,2013-11-08 09:13:00,
2013-11-08 03:18:00,46.6,37.3,30.22,ENE,68,0.0,0.0,70,0.00,CLR,,0.00,WeatherDisplay:10.37,2013-11-08 09:18:00,
2013-11-08 03:23:00,46.2,37.0,30.21,ENE,68,0.0,0.0,70,0.00,CLR,,0.00,WeatherDisplay:10.37,2013-11-08 09:23:00,
2013-11-08 03:28:00,46.2,37.0,30.22,ENE,68,0.0,0.0,70,0.00,CLR,,0.00,WeatherDisplay:10.37,2013-11-08 09:28:00,
2013-11-08 03:33:00,46.2,37.3,30.22,East,90,0.0,0.0,71,0.00,CLR,,0.00,WeatherDisplay:10.37,2013-11-08 09:33:00,
2013-11-08 03:38:00,46.2,37.3,30.22,ENE,68,0.0,0.0,71,0.00,CLR,,0.00,WeatherDisplay:10.37,2013-11-08 09:38:00,
2013-11-08 03:43:00,46.0,37.2,30.22,ENE,68,0.0,0.0,71,0.00,CLR,,0.00,WeatherDisplay:10.37,2013-11-08 09:43:00,
2013-11-08 03:48:00,46.0,37.2,30.22,NE,45,0.0,0.0,71,0.00,CLR,,0.00,WeatherDisplay:10.37,2013-11-08 09:48:00,
2013-11-08 03:53:00,46.0,37.2,30.23,NE,45,0.0,0.0,71,0.00,CLR,,0.00,WeatherDisplay:10.37,2013-11-08 09:53:00,
2013-11-08 03:58:00,45.7,36.8,30.23,East,90,0.0,0.0,71,0.00,CLR,,0.00,WeatherDisplay:10.37,2013-11-08 09:58:00,
2013-11-08 04:03:00,45.7,36.8,30.23,NE,45,0.0,0.0,71,0.00,CLR,,0.00,WeatherDisplay:10.37,2013-11-08 10:03:00,
2013-11-08 04:08:00,45.7,36.8,30.23,NE,45,0.0,0.0,71,0.00,CLR,,0.00,WeatherDisplay:10.37,2013-11-08 10:08:00,
2013-11-08 04:13:00,45.5,36.6,30.23,ENE,68,0.0,0.0,71,0.00,CLR,,0.00,WeatherDisplay:10.37,2013-11-08 10:13:00,
2013-11-08 04:18:00,45.3,36.5,30.22,ENE,68,0.0,0.0,71,0.00,CLR,,0.00,WeatherDisplay:10.37,2013-11-08 10:18:00,
2013-11-08 04:23:00,45.3,36.5,30.23,NE,45,0.0,0.0,71,0.00,CLR,,0.00,WeatherDisplay:10.37,2013-11-08 10:23:00,
2013-11-08 04:28:00,45.1,36.3,30.24,NE,45,0.0,0.0,71,0.00,CLR,,0.00,WeatherDisplay:10.37,2013-11-08 10:28:00,
2013-11-08 04:33:00,45.1,36.3,30.24,ENE,68,0.0,0.0,71,0.00,CLR,,0.00,WeatherDisplay:10.37,2013-11-08 10:33:00,
2013-11-08 04:38:00,45.0,36.1,30.24,ENE,68,0.0,0.0,71,0.00,CLR,,0.00,WeatherDisplay:10.37,2013-11-08 10:38:00,
2013-11-08 04:43:00,45.0,36.1,30.24,ENE,68,0.0,0.0,71,0.00,CLR,,0.00,WeatherDisplay:10.37,2013-11-08 10:43:00,
2013-11-08 04:48:00,45.0,36.1,30.24,ENE,68,0.0,0.0,71,0.00,CLR,,0.00,WeatherDisplay:10.37,2013-11-08 10:48:00,
2013-11-08 04:53:00,44.8,35.9,30.24,ENE,68,0.0,0.0,71,0.00,CLR,,0.00,WeatherDisplay:10.37,2013-11-08 10:53:00,
2013-11-08 04:58:00,44.8,35.9,30.24,ENE,68,0.0,0.0,71,0.00,CLR,,0.00,WeatherDisplay:10.37,2013-11-08 10:58:00,
2013-11-08 05:03:00,44.8,35.9,30.24,ENE,68,0.0,0.0,71,0.00,CLR,,0.00,WeatherDisplay:10.37,2013-11-08 11:03:00,
2013-11-08 05:08:00,44.8,35.9,30.24,ENE,68,0.0,0.0,71,0.00,CLR,,0.00,WeatherDisplay:10.37,2013-11-08 11:08:00,
2013-11-08 05:13:00,44.4,35.6,30.24,ENE,68,0.0,0.0,71,0.00,CLR,,0.00,WeatherDisplay:10.37,2013-11-08 11:13:00,
2013-11-08 05:18:00,44.4,35.6,30.25,ENE,68,0.0,0.0,71,0.00,CLR,,0.00,WeatherDisplay:10.37,2013-11-08 11:18:00,
2013-11-08 05:23:00,44.4,35.6,30.25,ENE,68,0.0,0.0,71,0.00,CLR,,0.00,WeatherDisplay:10.37,2013-11-08 11:23:00,
2013-11-08 05:28:00,44.4,35.6,30.25,ENE,68,0.0,0.0,71,0.00,CLR,,0.00,WeatherDisplay:10.37,2013-11-08 11:28:00,
2013-11-08 05:33:00,44.4,35.6,30.25,NE,45,0.0,0.0,71,0.00,CLR,,0.00,WeatherDisplay:10.37,2013-11-08 11:33:00,
2013-11-08 05:38:00,44.4,35.6,30.25,ENE,68,0.0,0.0,71,0.00,CLR,,0.00,WeatherDisplay:10.37,2013-11-08 11:38:00,
2013-11-08 05:43:00,44.4,35.6,30.25,ENE,68,0.0,0.0,71,0.00,CLR,,0.00,WeatherDisplay:10.37,2013-11-08 11:43:00,
2013-11-08 05:48:00,44.4,35.6,30.25,ENE,68,0.0,0.0,71,0.00,CLR,,0.00,WeatherDisplay:10.37,2013-11-08 11:48:00,
2013-11-08 05:53:00,44.4,35.6,30.26,ENE,68,0.0,0.0,71,0.00,CLR,,0.00,WeatherDisplay:10.37,2013-11-08 11:53:00,
2013-11-08 05:58:00,44.2,35.4,30.26,ENE,68,0.0,0.0,71,0.00,CLR,,0.00,WeatherDisplay:10.37,2013-11-08 11:58:00,
2013-11-08 06:03:00,44.2,35.4,30.26,ENE,68,0.0,0.0,71,0.00,CLR,,0.00,WeatherDisplay:10.37,2013-11-08 12:03:00,
2013-11-08 06:08:00,44.2,35.4,30.26,ENE,68,0.0,0.0,71,0.00,CLR,,0.00,WeatherDisplay:10.37,2013-11-08 12:08:00,
2013-11-08 06:13:00,44.1,35.3,30.27,ENE,68,0.0,0.0,71,0.00,CLR,,0.00,WeatherDisplay:10.37,2013-11-08 12:13:00,
2013-11-08 06:18:00,43.9,35.1,30.27,ENE,68,0.0,0.0,71,0.00,CLR,,0.00,WeatherDisplay:10.37,2013-11-08 12:18:00,
2013-11-08 06:23:00,43.9,35.1,30.27,ENE,68,0.0,0.0,71,0.00,CLR,,0.00,WeatherDisplay:10.37,2013-11-08 12:23:00,
2013-11-08 06:28:00,43.9,35.1,30.26,ENE,68,0.0,0.0,71,0.00,CLR,,0.00,WeatherDisplay:10.37,2013-11-08 12:28:00,
2013-11-08 06:33:00,43.9,34.7,30.26,ENE,68,0.0,0.0,70,0.00,CLR,,0.00,WeatherDisplay:10.37,2013-11-08 12:33:00,
2013-11-08 06:38:00,43.9,34.7,30.26,ENE,68,0.0,0.0,70,0.00,CLR,,0.00,WeatherDisplay:10.37,2013-11-08 12:38:00,
2013-11-08 06:43:00,44.1,34.9,30.27,NE,45,0.0,0.0,70,0.00,CLR,,0.00,WeatherDisplay:10.37,2013-11-08 12:43:00,
2013-11-08 06:48:00,44.2,35.1,30.27,ENE,68,0.0,0.0,70,0.00,CLR,,0.00,WeatherDisplay:10.37,2013-11-08 12:48:00,
2013-11-08 06:53:00,44.4,35.2,30.27,ENE,68,0.0,0.0,70,0.00,CLR,,0.00,WeatherDisplay:10.37,2013-11-08 12:53:00,
2013-11-08 06:58:00,44.6,35.4,30.27,ENE,68,0.0,0.0,70,0.00,CLR,,0.00,WeatherDisplay:10.37,2013-11-08 12:58:00,
2013-11-08 07:03:00,45.0,35.4,30.27,East,90,0.0,0.0,69,0.00,CLR,,0.00,WeatherDisplay:10.37,2013-11-08 13:03:00,
2013-11-08 07:08:00,45.3,35.4,30.28,ENE,68,0.0,0.0,68,0.00,CLR,,0.00,WeatherDisplay:10.37,2013-11-08 13:08:00,
2013-11-08 07:13:00,46.0,36.1,30.28,ENE,68,0.0,0.0,68,0.00,CLR,,0.00,WeatherDisplay:10.37,2013-11-08 13:13:00,
2013-11-08 07:18:00,46.2,35.9,30.28,ENE,68,0.0,0.0,67,0.00,CLR,,0.00,WeatherDisplay:10.37,2013-11-08 13:18:00,
2013-11-08 07:23:00,46.6,36.2,30.28,ENE,68,0.0,0.0,67,0.00,CLR,,0.00,WeatherDisplay:10.37,2013-11-08 13:23:00,
2013-11-08 07:28:00,46.8,36.0,30.28,ENE,68,0.0,0.0,66,0.00,CLR,,0.00,WeatherDisplay:10.37,2013-11-08 13:28:00,
2013-11-08 07:33:00,47.3,36.5,30.28,ENE,68,0.0,0.0,66,0.00,CLR,,0.00,WeatherDisplay:10.37,2013-11-08 13:33:00,
2013-11-08 07:38:00,47.8,36.6,30.28,ENE,68,0.0,0.0,65,0.00,CLR,,0.00,WeatherDisplay:10.37,2013-11-08 13:38:00,
2013-11-08 07:43:00,48.0,36.8,30.28,ENE,68,0.0,0.0,65,0.00,CLR,,0.00,WeatherDisplay:10.37,2013-11-08 13:43:00,
2013-11-08 07:48:00,48.2,36.6,30.28,ENE,68,0.0,0.0,64,0.00,CLR,,0.00,WeatherDisplay:10.37,2013-11-08 13:48:00,
2013-11-08 07:53:00,48.4,36.4,30.28,ENE,68,0.0,0.0,63,0.00,CLR,,0.00,WeatherDisplay:10.37,2013-11-08 13:53:00,
2013-11-08 07:58:00,48.4,36.4,30.29,East,90,0.0,0.0,63,0.00,CLR,,0.00,WeatherDisplay:10.37,2013-11-08 13:58:00,
2013-11-08 08:03:00,48.7,36.3,30.29,ENE,68,0.0,0.0,62,0.00,CLR,,0.00,WeatherDisplay:10.37,2013-11-08 14:03:00,
2013-11-08 08:08:00,48.9,36.5,30.29,ENE,68,0.0,0.0,62,0.00,CLR,,0.00,WeatherDisplay:10.37,2013-11-08 14:08:00,
2013-11-08 08:13:00,49.3,36.8,30.29,NE,45,0.0,0.0,62,0.00,CLR,,0.00,WeatherDisplay:10.37,2013-11-08 14:13:00,
2013-11-08 08:18:00,49.6,36.7,30.29,ENE,68,0.0,0.0,61,0.00,CLR,,0.00,WeatherDisplay:10.37,2013-11-08 14:18:00,
2013-11-08 08:23:00,50.0,37.1,30.29,ENE,68,0.0,0.0,61,0.00,CLR,,0.00,WeatherDisplay:10.37,2013-11-08 14:23:00,
2013-11-08 08:28:00,50.4,37.0,30.29,East,90,11.9,11.9,60,0.00,CLR,,0.00,WeatherDisplay:10.37,2013-11-08 14:28:00,
2013-11-08 08:33:00,50.7,36.9,30.29,East,90,0.0,0.0,59,0.00,CLR,,0.00,WeatherDisplay:10.37,2013-11-08 14:33:00,
2013-11-08 08:38:00,51.1,36.8,30.29,ENE,68,0.0,0.0,58,0.00,CLR,,0.00,WeatherDisplay:10.37,2013-11-08 14:38:00,
2013-11-08 08:43:00,51.4,37.1,30.29,NE,45,0.0,0.0,58,0.00,CLR,,0.00,WeatherDisplay:10.37,2013-11-08 14:43:00,
2013-11-08 08:48:00,51.6,36.0,30.29,ENE,68,11.5,22.6,55,0.00,,,0.00,WeatherDisplay:10.37,2013-11-08 14:48:00,
2013-11-08 08:53:00,51.8,36.6,30.29,ENE,68,0.0,0.0,56,0.00,CLR,,0.00,WeatherDisplay:10.37,2013-11-08 14:53:00,
2013-11-08 08:58:00,52.2,36.5,30.29,NE,45,0.0,0.0,55,0.00,CLR,,0.00,WeatherDisplay:10.37,2013-11-08 14:58:00,
2013-11-08 09:03:00,52.5,36.8,30.29,NE,45,11.5,14.6,55,0.00,CLR,,0.00,WeatherDisplay:10.37,2013-11-08 15:03:00,
2013-11-08 09:08:00,52.9,36.7,30.29,ENE,68,14.2,28.0,54,0.00,CLR,,0.00,WeatherDisplay:10.37,2013-11-08 15:08:00,
2013-11-08 09:13:00,52.9,36.7,30.29,ENE,68,0.0,0.9,54,0.00,CLR,,0.00,WeatherDisplay:10.37,2013-11-08 15:13:00,
2013-11-08 09:18:00,53.4,37.2,30.29,East,90,0.0,0.0,54,0.00,CLR,,0.00,WeatherDisplay:10.37,2013-11-08 15:18:00,
2013-11-08 09:23:00,53.8,37.5,30.29,ENE,68,0.0,0.0,54,0.00,CLR,,0.00,WeatherDisplay:10.37,2013-11-08 15:23:00,
2013-11-08 09:28:00,53.8,37.0,30.29,ENE,68,0.4,0.0,53,0.00,CLR,,0.00,WeatherDisplay:10.37,2013-11-08 15:28:00,
2013-11-08 09:33:00,54.1,36.4,30.29,ENE,68,11.5,17.9,51,0.00,CLR,,0.00,WeatherDisplay:10.37,2013-11-08 15:33:00,
2013-11-08 09:38:00,54.3,36.6,30.28,East,90,17.3,31.0,51,0.00,,,0.00,WeatherDisplay:10.37,2013-11-08 15:38:00,
2013-11-08 09:43:00,54.3,36.1,30.28,ENE,68,14.2,14.2,50,0.00,CLR,,0.00,WeatherDisplay:10.37,2013-11-08 15:43:00,
2013-11-08 09:48:00,54.7,36.4,30.28,ENE,68,10.4,10.4,50,0.00,CLR,,0.00,WeatherDisplay:10.37,2013-11-08 15:48:00,
2013-11-08 09:53:00,54.9,36.6,30.28,East,90,11.5,15.6,50,0.00,CLR,,0.00,WeatherDisplay:10.37,2013-11-08 15:53:00,
2013-11-08 09:58:00,55.2,36.9,30.28,ENE,68,0.0,0.0,50,0.00,CLR,,0.00,WeatherDisplay:10.37,2013-11-08 15:58:00,
2013-11-08 10:03:00,55.6,37.2,30.28,ENE,68,13.8,19.6,50,0.00,CLR,,0.00,WeatherDisplay:10.37,2013-11-08 16:03:00,
2013-11-08 10:08:00,55.9,38.1,30.28,ENE,68,0.0,0.0,51,0.00,CLR,,0.00,WeatherDisplay:10.37,2013-11-08 16:08:00,
2013-11-08 10:13:00,56.1,37.7,30.28,ENE,68,4.0,7.0,50,0.00,CLR,,0.00,WeatherDisplay:10.37,2013-11-08 16:13:00,
2013-11-08 10:18:00,56.3,37.9,30.27,East,90,13.8,27.2,50,0.00,CLR,,0.00,WeatherDisplay:10.37,2013-11-08 16:18:00,
2013-11-08 10:23:00,56.5,38.1,30.26,ENE,68,0.0,0.2,50,0.00,CLR,,0.00,WeatherDisplay:10.37,2013-11-08 16:23:00,
2013-11-08 10:28:00,57.0,38.0,30.26,ENE,68,9.2,18.4,49,0.00,CLR,,0.00,WeatherDisplay:10.37,2013-11-08 16:28:00,
2013-11-08 10:33:00,57.0,37.5,30.26,ENE,68,17.3,17.3,48,0.00,,,0.00,WeatherDisplay:10.37,2013-11-08 16:33:00,
2013-11-08 10:38:00,57.4,37.8,30.25,ENE,68,0.0,0.0,48,0.00,CLR,,0.00,WeatherDisplay:10.37,2013-11-08 16:38:00,
2013-11-08 10:43:00,57.6,38.0,30.26,ENE,68,0.0,0.0,48,0.00,CLR,,0.00,WeatherDisplay:10.37,2013-11-08 16:43:00,
2013-11-08 10:48:00,57.7,38.2,30.26,East,90,11.5,11.5,48,0.00,CLR,,0.00,WeatherDisplay:10.37,2013-11-08 16:48:00,
2013-11-08 10:53:00,57.9,38.3,30.25,ENE,68,0.0,0.0,48,0.00,CLR,,0.00,WeatherDisplay:10.37,2013-11-08 16:53:00,
2013-11-08 10:58:00,58.3,38.1,30.25,ENE,68,0.0,0.0,47,0.00,CLR,,0.00,WeatherDisplay:10.37,2013-11-08 16:58:00,
2013-11-08 11:03:00,58.6,39.0,30.25,ENE,68,0.0,0.0,48,0.00,CLR,,0.00,WeatherDisplay:10.37,2013-11-08 17:03:00,
2013-11-08 11:08:00,58.8,39.2,30.24,ENE,68,10.6,20.3,48,0.00,CLR,,0.00,WeatherDisplay:10.37,2013-11-08 17:08:00,
2013-11-08 11:13:00,58.8,38.1,30.24,ENE,68,0.0,0.0,46,0.00,CLR,,0.00,WeatherDisplay:10.37,2013-11-08 17:13:00,
2013-11-08 11:18:00,59.2,39.5,30.24,ENE,68,8.1,12.7,48,0.00,CLR,,0.00,WeatherDisplay:10.37,2013-11-08 17:18:00,
2013-11-08 11:23:00,59.5,38.7,30.24,East,90,5.8,11.4,46,0.00,CLR,,0.00,WeatherDisplay:10.37,2013-11-08 17:23:00,
2013-11-08 11:28:00,59.7,38.3,30.23,East,90,10.4,19.1,45,0.00,,,0.00,WeatherDisplay:10.37,2013-11-08 17:28:00,
2013-11-08 11:33:00,59.9,38.5,30.23,ENE,68,13.8,20.4,45,0.00,CLR,,0.00,WeatherDisplay:10.37,2013-11-08 17:33:00,
2013-11-08 11:38:00,60.1,37.5,30.23,NW,315,0.0,0.0,43,0.00,CLR,,0.00,WeatherDisplay:10.37,2013-11-08 17:38:00,
2013-11-08 11:43:00,60.4,38.4,30.23,ENE,68,0.0,0.0,44,0.00,CLR,,0.00,WeatherDisplay:10.37,2013-11-08 17:43:00,
2013-11-08 11:48:00,60.6,38.0,30.22,ENE,68,16.1,30.3,43,0.00,,,0.00,WeatherDisplay:10.37,2013-11-08 17:48:00,
2013-11-08 11:53:00,60.8,38.1,30.22,ENE,68,11.5,22.8,43,0.00,CLR,,0.00,WeatherDisplay:10.37,2013-11-08 17:53:00,
2013-11-08 11:58:00,61.2,38.5,30.22,ENE,68,2.3,3.5,43,0.00,CLR,,0.00,WeatherDisplay:10.37,2013-11-08 17:58:00,
2013-11-08 12:03:00,61.3,38.6,30.22,NNE,22,12.7,12.7,43,0.00,CLR,,0.00,WeatherDisplay:10.37,2013-11-08 18:03:00,
2013-11-08 12:08:00,61.5,38.8,30.22,ENE,68,0.0,0.0,43,0.00,CLR,,0.00,WeatherDisplay:10.37,2013-11-08 18:08:00,
2013-11-08 12:13:00,61.9,39.1,30.21,ENE,68,4.6,4.6,43,0.00,CLR,,0.00,WeatherDisplay:10.37,2013-11-08 18:13:00,
2013-11-08 12:18:00,61.9,39.1,30.21,ENE,68,0.0,0.0,43,0.00,CLR,,0.00,WeatherDisplay:10.37,2013-11-08 18:18:00,
2013-11-08 12:23:00,62.4,40.2,30.21,East,90,0.0,0.0,44,0.00,CLR,,0.00,WeatherDisplay:10.37,2013-11-08 18:23:00,
2013-11-08 12:28:00,62.4,40.2,30.20,NE,45,12.7,20.0,44,0.00,CLR,,0.00,WeatherDisplay:10.37,2013-11-08 18:28:00,
2013-11-08 12:33:00,62.6,39.2,30.20,ENE,68,1.2,0.0,42,0.00,CLR,,0.00,WeatherDisplay:10.37,2013-11-08 18:33:00,
2013-11-08 12:38:00,62.6,39.2,30.20,ENE,68,6.9,10.2,42,0.00,CLR,,0.00,WeatherDisplay:10.37,2013-11-08 18:38:00,
2013-11-08 12:43:00,63.0,39.5,30.20,NE,45,0.0,0.0,42,0.00,CLR,,0.00,WeatherDisplay:10.37,2013-11-08 18:43:00,
2013-11-08 12:48:00,63.0,40.1,30.19,ENE,68,0.0,0.0,43,0.00,CLR,,0.00,WeatherDisplay:10.37,2013-11-08 18:48:00,
2013-11-08 12:53:00,63.1,39.7,30.18,ENE,68,0.0,0.0,42,0.00,,,0.00,WeatherDisplay:10.37,2013-11-08 18:53:00,
2013-11-08 12:58:00,63.0,39.5,30.18,ENE,68,4.9,4.9,42,0.00,CLR,,0.00,WeatherDisplay:10.37,2013-11-08 18:58:00,
2013-11-08 13:03:00,63.1,39.7,30.18,East,90,0.0,0.0,42,0.00,CLR,,0.00,WeatherDisplay:10.37,2013-11-08 19:03:00,
2013-11-08 13:08:00,63.1,39.7,30.18,ENE,68,0.0,0.0,42,0.00,CLR,,0.00,WeatherDisplay:10.37,2013-11-08 19:08:00,
2013-11-08 13:13:00,63.3,40.4,30.18,ENE,68,0.0,0.0,43,0.00,CLR,,0.00,WeatherDisplay:10.37,2013-11-08 19:13:00,
2013-11-08 13:18:00,63.5,40.0,30.17,ENE,68,12.7,21.3,42,0.00,CLR,,0.00,WeatherDisplay:10.37,2013-11-08 19:18:00,
2013-11-08 13:23:00,63.5,39.4,30.18,East,90,0.0,0.0,41,0.00,CLR,,0.00,WeatherDisplay:10.37,2013-11-08 19:23:00,
2013-11-08 13:28:00,63.7,39.5,30.17,ENE,68,11.5,11.5,41,0.00,CLR,,0.00,WeatherDisplay:10.37,2013-11-08 19:28:00,
2013-11-08 13:33:00,63.7,39.5,30.17,ENE,68,6.9,6.9,41,0.00,CLR,,0.00,WeatherDisplay:10.37,2013-11-08 19:33:00,
2013-11-08 13:38:00,63.7,39.5,30.17,ENE,68,11.5,11.5,41,0.00,CLR,,0.00,WeatherDisplay:10.37,2013-11-08 19:38:00,
2013-11-08 13:43:00,63.5,39.4,30.17,East,90,0.0,0.0,41,0.00,CLR,,0.00,WeatherDisplay:10.37,2013-11-08 19:43:00,
2013-11-08 13:48:00,63.7,39.5,30.17,East,90,0.0,0.0,41,0.00,CLR,,0.00,WeatherDisplay:10.37,2013-11-08 19:48:00,
2013-11-08 13:53:00,63.7,38.9,30.17,SE,135,2.3,3.4,40,0.00,CLR,,0.00,WeatherDisplay:10.37,2013-11-08 19:53:00,
2013-11-08 13:58:00,63.7,38.9,30.17,ENE,68,0.0,0.0,40,0.00,CLR,,0.00,WeatherDisplay:10.37,2013-11-08 19:58:00,
2013-11-08 14:03:00,63.7,39.5,30.17,ENE,68,15.0,28.9,41,0.00,CLR,,0.00,WeatherDisplay:10.37,2013-11-08 20:03:00,
2013-11-08 14:08:00,63.7,39.5,30.17,NE,45,0.0,0.0,41,0.00,CLR,,0.00,WeatherDisplay:10.37,2013-11-08 20:08:00,
2013-11-08 14:13:00,64.0,39.8,30.17,NNE,22,0.0,0.0,41,0.00,CLR,,0.00,WeatherDisplay:10.37,2013-11-08 20:13:00,
2013-11-08 14:18:00,63.7,39.5,30.17,ENE,68,0.0,0.0,41,0.00,CLR,,0.00,WeatherDisplay:10.37,2013-11-08 20:18:00,
2013-11-08 14:23:00,63.7,39.5,30.17,ENE,68,0.0,0.0,41,0.00,CLR,,0.00,WeatherDisplay:10.37,2013-11-08 20:23:00,
2013-11-08 14:28:00,63.7,39.5,30.17,ENE,68,0.0,0.0,41,0.00,CLR,,0.00,WeatherDisplay:10.37,2013-11-08 20:28:00,
2013-11-08 14:33:00,63.7,39.5,30.17,ENE,68,6.2,12.3,41,0.00,CLR,,0.00,WeatherDisplay:10.37,2013-11-08 20:33:00,
2013-11-08 14:38:00,63.7,39.5,30.17,ENE,68,3.5,4.1,41,0.00,CLR,,0.00,WeatherDisplay:10.37,2013-11-08 20:38:00,
2013-11-08 14:43:00,63.7,39.5,30.16,ENE,68,0.0,0.0,41,0.00,CLR,,0.00,WeatherDisplay:10.37,2013-11-08 20:43:00,
2013-11-08 14:48:00,63.7,39.5,30.17,ENE,68,0.0,0.0,41,0.00,CLR,,0.00,WeatherDisplay:10.37,2013-11-08 20:48:00,
2013-11-08 14:53:00,63.7,39.5,30.16,ENE,68,0.0,0.0,41,0.00,CLR,,0.00,WeatherDisplay:10.37,2013-11-08 20:53:00,
2013-11-08 14:58:00,63.7,40.1,30.16,NE,45,0.0,0.0,42,0.00,CLR,,0.00,WeatherDisplay:10.37,2013-11-08 20:58:00,
2013-11-08 15:03:00,63.7,39.5,30.16,ENE,68,0.0,0.0,41,0.00,CLR,,0.00,WeatherDisplay:10.37,2013-11-08 21:03:00,
2013-11-08 15:08:00,63.7,39.5,30.16,ENE,68,0.0,0.0,41,0.00,CLR,,0.00,WeatherDisplay:10.37,2013-11-08 21:08:00,
2013-11-08 15:13:00,63.7,40.1,30.16,ENE,68,0.0,0.0,42,0.00,CLR,,0.00,WeatherDisplay:10.37,2013-11-08 21:13:00,
2013-11-08 15:18:00,63.7,40.1,30.16,NE,45,0.0,0.0,42,0.00,CLR,,0.00,WeatherDisplay:10.37,2013-11-08 21:18:00,
2013-11-08 15:23:00,63.7,40.1,30.16,ENE,68,0.0,0.0,42,0.00,CLR,,0.00,WeatherDisplay:10.37,2013-11-08 21:23:00,
2013-11-08 15:28:00,63.5,40.0,30.16,ENE,68,9.7,15.4,42,0.00,CLR,,0.00,WeatherDisplay:10.37,2013-11-08 21:28:00,
2013-11-08 15:33:00,63.5,40.0,30.16,East,90,0.0,0.0,42,0.00,CLR,,0.00,WeatherDisplay:10.37,2013-11-08 21:33:00,
2013-11-08 15:38:00,63.5,40.0,30.16,ENE,68,1.2,1.7,42,0.00,CLR,,0.00,WeatherDisplay:10.37,2013-11-08 21:38:00,
2013-11-08 15:43:00,63.3,39.8,30.16,ENE,68,0.0,0.0,42,0.00,CLR,,0.00,WeatherDisplay:10.37,2013-11-08 21:43:00,
2013-11-08 15:48:00,63.1,39.7,30.16,ENE,68,0.0,0.0,42,0.00,CLR,,0.00,WeatherDisplay:10.37,2013-11-08 21:48:00,
2013-11-08 15:53:00,63.1,40.3,30.16,ENE,68,0.0,0.0,43,0.00,CLR,,0.00,WeatherDisplay:10.37,2013-11-08 21:53:00,
2013-11-08 15:58:00,63.1,40.3,30.16,ENE,68,0.0,0.0,43,0.00,CLR,,0.00,WeatherDisplay:10.37,2013-11-08 21:58:00,
2013-11-08 16:03:00,63.0,40.7,30.15,ENE,68,0.0,0.0,44,0.00,CLR,,0.00,WeatherDisplay:10.37,2013-11-08 22:03:00,
2013-11-08 16:08:00,62.8,40.5,30.16,ENE,68,0.0,0.0,44,0.00,CLR,,0.00,WeatherDisplay:10.37,2013-11-08 22:08:00,
2013-11-08 16:13:00,62.8,40.5,30.16,ENE,68,0.0,0.0,44,0.00,CLR,,0.00,WeatherDisplay:10.37,2013-11-08 22:13:00,
2013-11-08 16:18:00,62.4,40.8,30.16,ENE,68,0.0,0.0,45,0.00,CLR,,0.00,WeatherDisplay:10.37,2013-11-08 22:18:00,
2013-11-08 16:23:00,62.1,41.0,30.16,ENE,68,0.0,0.0,46,0.00,CLR,,0.00,WeatherDisplay:10.37,2013-11-08 22:23:00,
2013-11-08 16:28:00,61.9,40.9,30.16,ENE,68,0.0,0.0,46,0.00,CLR,,0.00,WeatherDisplay:10.37,2013-11-08 22:28:00,
2013-11-08 16:33:00,61.7,40.7,30.16,ENE,68,0.0,0.0,46,0.00,CLR,,0.00,WeatherDisplay:10.37,2013-11-08 22:33:00,
2013-11-08 16:38:00,61.5,40.5,30.16,ENE,68,0.0,0.0,46,0.00,CLR,,0.00,WeatherDisplay:10.37,2013-11-08 22:38:00,
2013-11-08 16:43:00,61.3,40.4,30.17,ENE,68,0.0,0.0,46,0.00,CLR,,0.00,WeatherDisplay:10.37,2013-11-08 22:43:00,
2013-11-08 16:48:00,61.0,40.0,30.17,ENE,68,0.0,0.0,46,0.00,CLR,,0.00,WeatherDisplay:10.37,2013-11-08 22:48:00,
2013-11-08 16:53:00,60.6,39.7,30.17,ENE,68,0.0,0.0,46,0.00,CLR,,0.00,WeatherDisplay:10.37,2013-11-08 22:53:00,
2013-11-08 16:58:00,60.6,40.3,30.17,ENE,68,0.0,0.0,47,0.00,CLR,,0.00,WeatherDisplay:10.37,2013-11-08 22:58:00,
2013-11-08 17:03:00,60.1,39.8,30.17,ENE,68,0.0,0.0,47,0.00,CLR,,0.00,WeatherDisplay:10.37,2013-11-08 23:03:00,
2013-11-08 17:08:00,59.7,40.5,30.17,ENE,68,0.0,0.0,49,0.00,CLR,,0.00,WeatherDisplay:10.37,2013-11-08 23:08:00,
2013-11-08 17:13:00,59.5,40.3,30.17,ENE,68,0.0,0.0,49,0.00,CLR,,0.00,WeatherDisplay:10.37,2013-11-08 23:13:00,
2013-11-08 17:18:00,58.8,40.7,30.17,ENE,68,0.0,0.0,51,0.00,CLR,,0.00,WeatherDisplay:10.37,2013-11-08 23:18:00,
2013-11-08 17:23:00,58.5,40.9,30.17,ENE,68,0.0,0.0,52,0.00,CLR,,0.00,WeatherDisplay:10.37,2013-11-08 23:23:00,
2013-11-08 17:28:00,57.9,40.9,30.17,ENE,68,0.0,0.0,53,0.00,CLR,,0.00,WeatherDisplay:10.37,2013-11-08 23:28:00,
2013-11-08 17:33:00,57.4,41.3,30.17,ENE,68,0.0,0.0,55,0.00,CLR,,0.00,WeatherDisplay:10.37,2013-11-08 23:33:00,
2013-11-08 17:38:00,56.8,40.8,30.18,ENE,68,0.0,0.0,55,0.00,CLR,,0.00,WeatherDisplay:10.37,2013-11-08 23:38:00,
2013-11-08 17:43:00,56.5,41.0,30.18,ENE,68,0.0,0.0,56,0.00,CLR,,0.00,WeatherDisplay:10.37,2013-11-08 23:43:00,
2013-11-08 17:48:00,55.9,40.9,30.18,ENE,68,0.0,0.0,57,0.00,CLR,,0.00,WeatherDisplay:10.37,2013-11-08 23:48:00,
2013-11-08 17:53:00,55.4,41.3,30.18,ENE,68,0.0,0.0,59,0.00,CLR,,0.00,WeatherDisplay:10.37,2013-11-08 23:53:00,
2013-11-08 17:58:00,55.0,41.4,30.18,ENE,68,0.0,0.0,60,0.00,CLR,,0.00,WeatherDisplay:10.37,2013-11-08 23:58:00,
2013-11-08 18:03:00,54.5,41.3,30.18,ENE,68,0.0,0.0,61,0.00,CLR,,0.00,WeatherDisplay:10.37,2013-11-09 00:03:00,
2013-11-08 18:08:00,54.1,41.0,30.18,ENE,68,0.0,0.0,61,0.00,CLR,,0.00,WeatherDisplay:10.37,2013-11-09 00:08:00,
2013-11-08 18:13:00,53.8,41.5,30.18,ENE,68,0.0,0.0,63,0.00,CLR,,0.00,WeatherDisplay:10.37,2013-11-09 00:13:00,
2013-11-08 18:18:00,53.4,41.1,30.19,ENE,68,0.0,0.0,63,0.00,CLR,,0.00,WeatherDisplay:10.37,2013-11-09 00:18:00,
2013-11-08 18:23:00,53.2,41.0,30.19,ENE,68,0.0,0.0,63,0.00,CLR,,0.00,WeatherDisplay:10.37,2013-11-09 00:23:00,
2013-11-08 18:28:00,52.7,40.9,30.19,ENE,68,0.0,0.0,64,0.00,CLR,,0.00,WeatherDisplay:10.37,2013-11-09 00:28:00,
2013-11-08 18:33:00,52.5,41.1,30.19,ENE,68,0.0,0.0,65,0.00,CLR,,0.00,WeatherDisplay:10.37,2013-11-09 00:33:00,
2013-11-08 18:38:00,52.2,40.7,30.19,ENE,68,0.0,0.0,65,0.00,CLR,,0.00,WeatherDisplay:10.37,2013-11-09 00:38:00,
2013-11-08 18:43:00,51.6,40.6,30.19,ENE,68,0.0,0.0,66,0.00,CLR,,0.00,WeatherDisplay:10.37,2013-11-09 00:43:00,
2013-11-08 18:48:00,51.4,40.8,30.19,ENE,68,0.0,0.0,67,0.00,CLR,,0.00,WeatherDisplay:10.37,2013-11-09 00:48:00,
2013-11-08 18:53:00,50.9,40.3,30.20,ENE,68,0.0,0.0,67,0.00,CLR,,0.00,WeatherDisplay:10.37,2013-11-09 00:53:00,
2013-11-08 18:58:00,50.7,40.5,30.19,ENE,68,0.0,0.0,68,0.00,CLR,,0.00,WeatherDisplay:10.37,2013-11-09 00:58:00,
2013-11-08 19:03:00,50.7,40.5,30.20,ENE,68,0.0,0.0,68,0.00,CLR,,0.00,WeatherDisplay:10.37,2013-11-09 01:03:00,
2013-11-08 19:08:00,50.5,40.4,30.20,ENE,68,0.0,0.0,68,0.00,CLR,,0.00,WeatherDisplay:10.37,2013-11-09 01:08:00,
2013-11-08 19:13:00,50.4,40.6,30.20,ENE,68,0.0,0.0,69,0.00,CLR,,0.00,WeatherDisplay:10.37,2013-11-09 01:13:00,
2013-11-08 19:18:00,50.2,40.8,30.21,ENE,68,0.0,0.0,70,0.00,CLR,,0.00,WeatherDisplay:10.37,2013-11-09 01:18:00,
2013-11-08 19:23:00,50.2,41.1,30.21,ENE,68,0.0,0.0,71,0.00,CLR,,0.00,WeatherDisplay:10.37,2013-11-09 01:23:00,
2013-11-08 19:28:00,49.8,40.8,30.20,ENE,68,0.0,0.0,71,0.00,CLR,,0.00,WeatherDisplay:10.37,2013-11-09 01:28:00,
2013-11-08 19:33:00,49.6,40.6,30.20,ENE,68,0.0,0.0,71,0.00,CLR,,0.00,WeatherDisplay:10.37,2013-11-09 01:33:00,
2013-11-08 19:38:00,49.3,40.6,30.20,ENE,68,0.0,0.0,72,0.00,CLR,,0.00,WeatherDisplay:10.37,2013-11-09 01:38:00,
2013-11-08 19:43:00,49.1,40.8,30.20,ENE,68,0.0,0.0,73,0.00,CLR,,0.00,WeatherDisplay:10.37,2013-11-09 01:43:00,
2013-11-08 19:48:00,48.9,40.6,30.20,ENE,68,0.0,0.0,73,0.00,CLR,,0.00,WeatherDisplay:10.37,2013-11-09 01:48:00,
2013-11-08 19:53:00,48.7,40.5,30.21,ENE,68,0.0,0.0,73,0.00,CLR,,0.00,WeatherDisplay:10.37,2013-11-09 01:53:00,
2013-11-08 19:58:00,48.6,40.6,30.21,ENE,68,0.0,0.0,74,0.00,CLR,,0.00,WeatherDisplay:10.37,2013-11-09 01:58:00,
2013-11-08 20:03:00,48.4,40.5,30.21,ENE,68,0.0,0.0,74,0.00,CLR,,0.00,WeatherDisplay:10.37,2013-11-09 02:03:00,
2013-11-08 20:08:00,48.0,40.5,30.21,ENE,68,0.0,0.0,75,0.00,CLR,,0.00,WeatherDisplay:10.37,2013-11-09 02:08:00,
2013-11-08 20:13:00,48.0,40.5,30.20,ENE,68,0.0,0.0,75,0.00,CLR,,0.00,WeatherDisplay:10.37,2013-11-09 02:13:00,
2013-11-08 20:18:00,47.7,40.1,30.20,ENE,68,0.0,0.0,75,0.00,CLR,,0.00,WeatherDisplay:10.37,2013-11-09 02:18:00,
2013-11-08 20:23:00,47.3,40.1,30.21,ENE,68,0.0,0.0,76,0.00,CLR,,0.00,WeatherDisplay:10.37,2013-11-09 02:23:00,
2013-11-08 20:28:00,47.1,40.3,30.21,ENE,68,0.0,0.0,77,0.00,CLR,,0.00,WeatherDisplay:10.37,2013-11-09 02:28:00,
2013-11-08 20:33:00,47.1,40.3,30.21,ENE,68,0.0,0.0,77,0.00,CLR,,0.00,WeatherDisplay:10.37,2013-11-09 02:33:00,
2013-11-08 20:38:00,46.9,40.1,30.21,ENE,68,0.0,0.0,77,0.00,CLR,,0.00,WeatherDisplay:10.37,2013-11-09 02:38:00,
2013-11-08 20:43:00,46.8,40.3,30.21,ENE,68,0.0,0.0,78,0.00,CLR,,0.00,WeatherDisplay:10.37,2013-11-09 02:43:00,
2013-11-08 20:49:00,46.6,40.1,30.21,ENE,68,0.0,0.0,78,0.00,CLR,,0.00,WeatherDisplay:10.37,2013-11-09 02:49:00,
2013-11-08 20:54:00,46.6,40.1,30.22,ENE,68,0.0,0.0,78,0.00,CLR,,0.00,WeatherDisplay:10.37,2013-11-09 02:54:00,
2013-11-08 20:59:00,46.6,40.1,30.22,ENE,68,0.0,0.0,78,0.00,CLR,,0.00,WeatherDisplay:10.37,2013-11-09 02:59:00,
2013-11-08 21:04:00,46.6,40.4,30.21,ENE,68,0.0,0.0,79,0.00,CLR,,0.00,WeatherDisplay:10.37,2013-11-09 03:04:00,
2013-11-08 21:09:00,46.2,40.1,30.21,ENE,68,0.0,0.0,79,0.00,CLR,,0.00,WeatherDisplay:10.37,2013-11-09 03:09:00,
2013-11-08 21:14:00,46.2,40.1,30.21,ENE,68,0.0,0.0,79,0.00,CLR,,0.00,WeatherDisplay:10.37,2013-11-09 03:14:00,
2013-11-08 21:19:00,46.0,39.9,30.21,ENE,68,0.0,0.0,79,0.00,CLR,,0.00,WeatherDisplay:10.37,2013-11-09 03:19:00,
2013-11-08 21:24:00,46.0,40.2,30.21,ENE,68,0.0,0.0,80,0.00,CLR,,0.00,WeatherDisplay:10.37,2013-11-09 03:24:00,
2013-11-08 21:29:00,45.7,39.5,30.21,ENE,68,0.0,0.0,79,0.00,CLR,,0.00,WeatherDisplay:10.37,2013-11-09 03:29:00,
2013-11-08 21:34:00,45.7,39.9,30.21,ENE,68,0.0,0.0,80,0.00,CLR,,0.00,WeatherDisplay:10.37,2013-11-09 03:34:00,
2013-11-08 21:39:00,45.5,39.7,30.22,ENE,68,0.0,0.0,80,0.00,CLR,,0.00,WeatherDisplay:10.37,2013-11-09 03:39:00,
2013-11-08 21:44:00,45.5,39.7,30.22,ENE,68,0.0,0.0,80,0.00,CLR,,0.00,WeatherDisplay:10.37,2013-11-09 03:44:00,
2013-11-08 21:49:00,45.5,39.7,30.22,ENE,68,0.0,0.0,80,0.00,CLR,,0.00,WeatherDisplay:10.37,2013-11-09 03:49:00,
2013-11-08 21:54:00,45.3,39.5,30.22,ENE,68,0.0,0.0,80,0.00,CLR,,0.00,WeatherDisplay:10.37,2013-11-09 03:54:00,
2013-11-08 21:59:00,45.3,39.8,30.21,ENE,68,0.0,0.0,81,0.00,CLR,,0.00,WeatherDisplay:10.37,2013-11-09 03:59:00,
2013-11-08 22:04:00,45.1,39.7,30.21,ENE,68,0.0,0.0,81,0.00,CLR,,0.00,WeatherDisplay:10.37,2013-11-09 04:04:00,
2013-11-08 22:09:00,45.1,39.7,30.21,ENE,68,0.0,0.0,81,0.00,CLR,,0.00,WeatherDisplay:10.37,2013-11-09 04:09:00,
2013-11-08 22:14:00,45.0,39.5,30.21,ENE,68,0.0,0.0,81,0.00,CLR,,0.00,WeatherDisplay:10.37,2013-11-09 04:14:00,
2013-11-08 22:19:00,45.0,39.5,30.21,ENE,68,0.0,0.0,81,0.00,CLR,,0.00,WeatherDisplay:10.37,2013-11-09 04:19:00,
2013-11-08 22:24:00,44.8,39.3,30.21,ENE,68,0.0,0.0,81,0.00,CLR,,0.00,WeatherDisplay:10.37,2013-11-09 04:24:00,
2013-11-08 22:29:00,44.8,39.3,30.20,ENE,68,0.0,0.0,81,0.00,CLR,,0.00,WeatherDisplay:10.37,2013-11-09 04:29:00,
2013-11-08 22:34:00,44.6,39.4,30.21,ENE,68,0.0,0.0,82,0.00,CLR,,0.00,WeatherDisplay:10.37,2013-11-09 04:34:00,
2013-11-08 22:39:00,44.6,39.4,30.20,ENE,68,0.0,0.0,82,0.00,CLR,,0.00,WeatherDisplay:10.37,2013-11-09 04:39:00,
2013-11-08 22:44:00,44.6,39.4,30.20,ENE,68,0.0,0.0,82,0.00,CLR,,0.00,WeatherDisplay:10.37,2013-11-09 04:44:00,
2013-11-08 22:49:00,44.6,39.4,30.20,ENE,68,0.0,0.0,82,0.00,CLR,,0.00,WeatherDisplay:10.37,2013-11-09 04:49:00,
2013-11-08 22:54:00,44.6,39.4,30.20,ENE,68,0.0,0.0,82,0.00,CLR,,0.00,WeatherDisplay:10.37,2013-11-09 04:54:00,
2013-11-08 22:59:00,44.4,39.3,30.20,ENE,68,0.0,0.0,82,0.00,CLR,,0.00,WeatherDisplay:10.37,2013-11-09 04:59:00,
2013-11-08 23:01:00,44.4,39.3,30.20,ENE,68,0.0,0.0,82,0.00,CLR,,0.00,WeatherDisplay:10.37,2013-11-09 05:01:00,
2013-11-08 23:02:00,44.4,39.3,30.20,ENE,68,0.0,0.0,82,0.00,CLR,,0.00,WeatherDisplay:10.37,2013-11-09 05:02:00,
2013-11-08 23:06:00,44.4,39.6,30.20,ENE,68,0.0,0.0,83,0.00,CLR,,0.00,WeatherDisplay:10.37,2013-11-09 05:06:00,
2013-11-08 23:08:00,44.4,39.6,30.20,ENE,68,0.0,0.0,83,0.00,CLR,,0.00,WeatherDisplay:10.37,2013-11-09 05:08:00,
2013-11-08 23:11:00,44.4,39.6,30.20,ENE,68,0.0,0.0,83,0.00,CLR,,0.00,WeatherDisplay:10.37,2013-11-09 05:11:00,
2013-11-08 23:16:00,44.4,39.6,30.20,ENE,68,0.0,0.0,83,0.00,CLR,,0.00,WeatherDisplay:10.37,2013-11-09 05:16:00,
2013-11-08 23:21:00,44.4,39.6,30.19,ENE,68,0.0,0.0,83,0.00,CLR,,0.00,WeatherDisplay:10.37,2013-11-09 05:21:00,
2013-11-08 23:26:00,44.2,39.4,30.19,ENE,68,0.0,0.0,83,0.00,CLR,,0.00,WeatherDisplay:10.37,2013-11-09 05:26:00,
2013-11-08 23:31:00,44.2,39.4,30.19,ENE,68,0.0,0.0,83,0.00,CLR,,0.00,WeatherDisplay:10.37,2013-11-09 05:31:00,
2013-11-08 23:36:00,44.2,39.4,30.19,ENE,68,0.0,0.0,83,0.00,CLR,,0.00,WeatherDisplay:10.37,2013-11-09 05:36:00,
2013-11-08 23:41:00,44.4,39.3,30.19,ENE,68,0.0,0.0,82,0.00,CLR,,0.00,WeatherDisplay:10.37,2013-11-09 05:41:00,
2013-11-08 23:46:00,44.4,39.3,30.18,ENE,68,0.0,0.0,82,0.00,CLR,,0.00,WeatherDisplay:10.37,2013-11-09 05:46:00,
2013-11-08 23:51:00,44.4,39.3,30.18,ENE,68,0.0,0.0,82,0.00,CLR,,0.00,WeatherDisplay:10.37,2013-11-09 05:51:00,
2013-11-08 23:56:00,44.4,39.3,30.18,ENE,68,0.0,0.0,82,0.00,CLR,,0.00,WeatherDisplay:10.37,2013-11-09 05:56:00,